Time;durP1;ratioP1;P1;durP2;ratioP2;P2;SDS_P1;SDS_P2;PMS_P1;PMS_P2;Temp;Humidity;BMP_temperature;BMP_pressure;BME280_temperature;BME280_humidity;BME280_pressure;Samples;Min_cycle;Max_cycle;Signal;HPM_P1;HPM_P2
2023/07/31 06:47:08;;;;;;;9.00;4.10;;;;;;;18.89;96.52;99973.58;223626;1268;139160;-89
2023/07/31 06:52:11;;;;;;;9.30;4.10;;;;;;;18.97;95.59;99968.79;223133;1267;141039;-91
2023/07/31 06:57:11;;;;;;;11.90;4.80;;;;;;;19.09;95.00;99967.40;223603;1267;138987;-91
2023/07/31 07:02:12;;;;;;;10.10;4.30;;;;;;;19.19;94.19;99968.77;223244;1267;141299;-90
2023/07/31 07:07:12;;;;;;;12.00;5.00;;;;;;;19.19;93.18;99969.08;223650;1267;138701;-91
2023/07/31 07:12:12;;;;;;;11.00;4.70;;;;;;;19.18;92.90;99966.23;223115;1267;140896;-92
2023/07/31 07:17:13;;;;;;;9.30;4.60;;;;;;;19.21;92.65;99967.20;223666;1267;138951;-93
2023/07/31 07:22:14;;;;;;;12.00;4.20;;;;;;;19.26;92.61;99968.02;223110;1267;140696;-91
2023/07/31 07:27:14;;;;;;;8.50;4.10;;;;;;;19.39;91.61;99972.45;223647;1266;138833;-91
2023/07/31 07:32:15;;;;;;;7.40;3.90;;;;;;;19.47;91.48;99963.98;223161;1267;142331;-91
2023/07/31 07:37:16;;;;;;;13.20;4.40;;;;;;;19.67;90.30;99965.33;223591;1266;138456;-93
2023/07/31 07:42:16;;;;;;;13.30;4.00;;;;;;;19.74;89.36;99971.80;223013;1267;140322;-90
2023/07/31 07:47:19;;;;;;;7.30;3.70;;;;;;;19.79;89.51;99979.85;223689;1267;138938;-92
2023/07/31 07:52:20;;;;;;;16.20;4.70;;;;;;;19.69;88.28;99982.96;223116;1267;140814;-91
2023/07/31 07:57:20;;;;;;;16.40;4.40;;;;;;;19.61;88.96;99984.82;223656;1267;139020;-92
2023/07/31 08:02:22;;;;;;;10.40;3.60;;;;;;;19.54;88.45;99984.58;223223;1266;141927;-90
2023/07/31 08:07:22;;;;;;;9.50;3.50;;;;;;;19.40;89.40;99985.80;223587;1267;138821;-92
2023/07/31 08:12:22;;;;;;;13.40;3.60;;;;;;;19.41;90.23;99985.70;223092;1267;140290;-91
2023/07/31 08:17:23;;;;;;;9.70;3.70;;;;;;;19.36;90.64;99983.70;223656;1266;139177;-93
2023/07/31 08:22:23;;;;;;;7.60;3.80;;;;;;;19.18;90.93;99979.16;223114;1266;140840;-91
2023/07/31 08:27:24;;;;;;;11.00;3.70;;;;;;;19.18;91.57;99983.86;223650;1267;139007;-91
2023/07/31 08:32:24;;;;;;;13.40;4.30;;;;;;;19.20;91.63;99978.30;223196;1267;141438;-90
2023/07/31 08:37:25;;;;;;;12.30;3.50;;;;;;;19.20;90.45;99978.45;223647;1266;138760;-90
2023/07/31 08:42:28;;;;;;;9.40;3.50;;;;;;;19.13;89.94;99984.73;223153;1266;140671;-92
2023/07/31 08:47:29;;;;;;;12.70;3.90;;;;;;;19.09;89.87;99976.32;223624;1266;138874;-90
2023/07/31 08:52:29;;;;;;;15.60;4.00;;;;;;;19.08;89.53;99974.84;223184;1266;140775;-89
2023/07/31 08:57:30;;;;;;;11.40;3.80;;;;;;;19.04;88.67;99973.04;223661;1266;138861;-90
2023/07/31 09:02:46;;;;;;;8.90;4.00;;;;;;;18.98;88.14;99966.62;223206;1267;141227;-93
2023/07/31 09:07:49;;;;;;;10.90;3.80;;;;;;;19.02;88.74;99962.67;223658;1266;138314;-90
2023/07/31 09:12:52;;;;;;;9.40;3.20;;;;;;;19.11;87.95;99963.92;223057;1266;140344;-91
2023/07/31 09:18:00;;;;;;;8.90;3.60;;;;;;;19.12;87.85;99961.49;223588;1267;139244;-89
2023/07/31 09:23:14;;;;;;;11.20;3.20;;;;;;;19.22;88.09;99958.88;223045;1267;142009;-91
2023/07/31 09:28:15;;;;;;;6.10;3.10;;;;;;;19.30;87.98;99957.60;223619;1267;138862;-91
2023/07/31 09:33:16;;;;;;;11.70;4.30;;;;;;;19.24;88.36;99960.33;223141;1266;140378;-91
2023/07/31 09:38:17;;;;;;;8.40;3.70;;;;;;;19.07;89.41;99967.13;223781;1267;95993;-87
2023/07/31 09:43:20;;;;;;;7.50;3.50;;;;;;;18.89;91.07;99969.77;222860;1267;287020;-91
2023/07/31 09:48:20;;;;;;;10.60;3.70;;;;;;;18.70;92.62;99972.24;223623;1267;139408;-91
2023/07/31 09:53:28;;;;;;;9.40;4.20;;;;;;;18.57;94.50;99974.14;223106;1267;140337;-90
2023/07/31 09:58:30;;;;;;;13.40;4.40;;;;;;;18.39;96.72;99979.75;223656;1266;138964;-89
2023/07/31 10:03:31;;;;;;;9.20;4.40;;;;;;;18.29;98.15;99973.64;223070;1267;140647;-93
2023/07/31 10:08:36;;;;;;;11.00;4.90;;;;;;;18.25;99.59;99964.35;223769;1266;95952;-90
2023/07/31 10:13:37;;;;;;;8.40;4.20;;;;;;;18.32;99.97;99960.42;223051;1267;140877;-91
2023/07/31 10:18:38;;;;;;;9.80;4.40;;;;;;;18.39;100.00;99953.55;223595;1267;138549;-89
2023/07/31 10:23:40;;;;;;;9.90;4.00;;;;;;;18.49;100.00;99943.07;223131;1267;141214;-92
2023/07/31 10:28:41;;;;;;;9.20;4.60;;;;;;;18.55;100.00;99941.45;223652;1266;138980;-90
2023/07/31 10:33:44;;;;;;;10.40;4.40;;;;;;;18.60;100.00;99938.29;223074;1267;141230;-89
2023/07/31 10:38:45;;;;;;;10.80;4.50;;;;;;;18.60;100.00;99933.05;223773;1266;96056;-90
2023/07/31 10:43:47;;;;;;;12.50;4.50;;;;;;;18.54;100.00;99935.47;223158;1266;141040;-93
2023/07/31 10:48:58;;;;;;;9.00;4.10;;;;;;;18.47;100.00;99926.58;223619;1266;139208;-89
2023/07/31 10:54:18;;;;;;;12.20;4.90;;;;;;;18.50;100.00;99921.40;223332;1267;247822;-90
2023/07/31 10:59:20;;;;;;;13.10;4.70;;;;;;;18.46;100.00;99919.44;222994;1266;141124;-90
2023/07/31 11:04:25;;;;;;;10.40;4.80;;;;;;;18.41;100.00;99915.30;223689;1266;139450;-93
2023/07/31 11:09:31;;;;;;;8.00;4.40;;;;;;;18.33;100.00;99910.65;223073;1266;140915;-91
2023/07/31 11:14:32;;;;;;;8.40;4.40;;;;;;;18.33;100.00;99903.59;223750;1267;108385;-90
2023/07/31 11:19:32;;;;;;;9.70;4.50;;;;;;;18.45;100.00;99904.83;223140;1267;142155;-91
2023/07/31 11:24:34;;;;;;;9.40;4.30;;;;;;;18.57;100.00;99899.13;223676;1267;139605;-93
2023/07/31 11:29:34;;;;;;;8.40;3.70;;;;;;;18.58;100.00;99892.58;223093;1267;142162;-89
2023/07/31 11:34:51;;;;;;;9.10;3.70;;;;;;;18.64;100.00;99886.88;223698;1267;138854;-90
2023/07/31 11:40:01;;;;;;;8.10;4.10;;;;;;;18.73;100.00;99881.03;223126;1266;141134;-90
2023/07/31 11:45:03;;;;;;;6.90;3.40;;;;;;;18.83;100.00;99875.71;223618;1267;139302;-87
2023/07/31 11:50:05;;;;;;;5.80;3.30;;;;;;;18.95;100.00;99864.90;223223;1266;152119;-91
2023/07/31 11:55:09;;;;;;;8.10;3.20;;;;;;;19.06;100.00;99863.50;223662;1267;139077;-89
2023/07/31 12:00:14;;;;;;;8.40;3.10;;;;;;;19.01;100.00;99865.16;223080;1266;141556;-94
2023/07/31 12:05:15;;;;;;;8.40;3.80;;;;;;;18.82;100.00;99869.23;223618;1267;139461;-93
2023/07/31 12:10:26;;;;;;;8.90;4.10;;;;;;;18.89;100.00;99866.52;223113;1266;140932;-89
2023/07/31 12:15:44;;;;;;;7.10;3.80;;;;;;;18.93;100.00;99860.25;223618;1266;139008;-94
2023/07/31 12:20:53;;;;;;;7.80;4.40;;;;;;;18.88;100.00;99859.20;223184;1266;142075;-89
2023/07/31 12:26:08;;;;;;;9.30;4.50;;;;;;;18.81;100.00;99855.37;223698;1267;96460;-92
2023/07/31 12:31:11;;;;;;;11.50;5.70;;;;;;;18.77;100.00;99848.83;223137;1266;141025;-91
2023/07/31 12:36:14;;;;;;;9.70;5.50;;;;;;;18.70;100.00;99844.57;223614;1267;139132;-92
2023/07/31 12:41:14;;;;;;;10.20;4.70;;;;;;;18.65;100.00;99846.73;223004;1267;142307;-88
2023/07/31 12:46:16;;;;;;;10.40;5.50;;;;;;;18.70;100.00;99843.05;223625;1266;139449;-89
2023/07/31 12:51:17;;;;;;;10.50;5.00;;;;;;;18.75;100.00;99836.46;223053;1267;141157;-91
2023/07/31 12:56:20;;;;;;;7.40;4.30;;;;;;;18.82;100.00;99831.23;223715;1267;96153;-91
2023/07/31 13:01:21;;;;;;;10.00;4.40;;;;;;;18.94;100.00;99821.25;223093;1267;141056;-91
2023/07/31 13:06:21;;;;;;;8.10;4.30;;;;;;;19.09;100.00;99819.59;223684;1266;139175;-91
2023/07/31 13:11:22;;;;;;;9.20;4.50;;;;;;;19.19;100.00;99818.38;223195;1267;140483;-91
2023/07/31 13:16:22;;;;;;;8.20;4.40;;;;;;;19.27;100.00;99810.45;223728;1267;138907;-88
2023/07/31 13:21:23;;;;;;;11.00;4.70;;;;;;;19.35;100.00;99807.15;223093;1267;140431;-92
2023/07/31 13:26:23;;;;;;;10.30;4.60;;;;;;;19.41;100.00;99799.20;223746;1267;95928;-92
2023/07/31 13:31:24;;;;;;;11.20;4.90;;;;;;;19.43;99.93;99791.48;223050;1267;140961;-92
2023/07/31 13:36:24;;;;;;;9.30;4.90;;;;;;;19.43;99.84;99790.76;223632;1266;139433;-93
2023/07/31 13:41:25;;;;;;;10.50;4.50;;;;;;;19.44;99.74;99792.11;223084;1266;140645;-92
2023/07/31 13:46:28;;;;;;;12.80;4.20;;;;;;;19.44;99.82;99787.63;223503;1267;139097;-91
2023/07/31 13:51:28;;;;;;;10.40;4.60;;;;;;;19.47;100.00;99788.80;223134;1266;140807;-91
2023/07/31 13:56:29;;;;;;;8.40;4.30;;;;;;;19.51;100.00;99786.08;223842;1267;95871;-93
2023/07/31 14:01:30;;;;;;;9.30;5.10;;;;;;;19.69;100.00;99791.19;223177;1266;141139;-93
2023/07/31 14:06:30;;;;;;;10.80;5.50;;;;;;;19.79;100.00;99790.42;223641;1267;139250;-90
2023/07/31 14:11:31;;;;;;;9.40;4.70;;;;;;;19.89;100.00;99780.15;223222;1267;141925;-91
2023/07/31 14:16:32;;;;;;;11.60;5.30;;;;;;;20.09;99.68;99776.63;223677;1267;139118;-91
2023/07/31 14:21:33;;;;;;;9.80;5.00;;;;;;;20.24;98.22;99771.66;223107;1267;140507;-90
2023/07/31 14:26:33;;;;;;;8.40;4.10;;;;;;;20.38;96.80;99762.92;223818;1267;96086;-93
2023/07/31 14:31:34;;;;;;;8.90;4.20;;;;;;;20.51;95.84;99758.79;223189;1267;140159;-92
2023/07/31 14:36:34;;;;;;;8.50;4.10;;;;;;;20.68;94.06;99751.79;223756;1267;139076;-93
2023/07/31 14:41:34;;;;;;;11.10;4.60;;;;;;;20.89;93.35;99746.69;223038;1267;140675;-91
2023/07/31 14:46:35;;;;;;;10.00;4.20;;;;;;;21.15;93.37;99742.79;223555;1267;138852;-92
2023/07/31 14:51:35;;;;;;;9.20;3.80;;;;;;;21.43;91.92;99738.14;223156;1266;140760;-93
2023/07/31 14:56:36;;;;;;;12.90;4.40;;;;;;;21.65;90.09;99731.70;223810;1266;95893;-92
2023/07/31 15:01:37;;;;;;;9.10;4.20;;;;;;;21.80;88.92;99728.09;223159;1266;140245;-94
2023/07/31 15:06:37;;;;;;;10.50;3.50;;;;;;;21.91;85.89;99729.41;223758;1266;139147;-92
2023/07/31 15:11:38;;;;;;;9.30;3.60;;;;;;;22.00;84.75;99723.95;223159;1267;142312;-93
2023/07/31 15:16:39;;;;;;;8.00;3.60;;;;;;;21.99;83.13;99723.66;223765;1266;138845;-92
2023/07/31 15:21:39;;;;;;;9.10;3.90;;;;;;;21.90;82.36;99719.38;223063;1267;140498;-92
2023/07/31 15:26:42;;;;;;;9.70;3.60;;;;;;;21.81;81.38;99712.42;223787;1267;95985;-92
2023/07/31 15:31:46;;;;;;;6.60;3.30;;;;;;;21.79;82.38;99706.58;223124;1267;140277;-92
2023/07/31 15:36:47;;;;;;;8.10;3.50;;;;;;;21.80;81.30;99711.51;223698;1267;138591;-92
2023/07/31 15:41:48;;;;;;;9.00;3.20;;;;;;;21.76;80.06;99708.89;223171;1266;141573;-92
2023/07/31 15:46:49;;;;;;;11.60;3.30;;;;;;;21.77;80.00;99701.73;223718;1267;138748;-92
2023/07/31 15:51:50;;;;;;;7.30;2.90;;;;;;;21.78;77.01;99703.06;223191;1267;140736;-91
2023/07/31 15:56:51;;;;;;;8.20;3.80;;;;;;;21.77;76.24;99697.90;223850;1266;95808;-92
2023/07/31 16:01:51;;;;;;;7.70;3.10;;;;;;;21.78;75.21;99700.16;223183;1266;140974;-91
2023/07/31 16:06:54;;;;;;;8.40;3.00;;;;;;;21.78;75.26;99690.89;223672;1268;138493;-96
2023/07/31 16:11:55;;;;;;;8.50;2.70;;;;;;;21.77;75.52;99683.46;223058;1266;140609;-90
2023/07/31 16:16:55;;;;;;;5.80;2.80;;;;;;;21.78;75.93;99675.34;223709;1267;138772;-92
2023/07/31 16:21:57;;;;;;;7.70;3.50;;;;;;;21.82;76.08;99669.16;223186;1267;140568;-92
2023/07/31 16:26:57;;;;;;;7.70;3.30;;;;;;;21.86;76.26;99669.27;223783;1267;107251;-92
2023/07/31 16:31:58;;;;;;;5.40;2.60;;;;;;;21.88;75.84;99665.02;223155;1267;141375;-91
2023/07/31 16:36:58;;;;;;;7.50;2.60;;;;;;;21.86;75.58;99667.69;223645;1267;138983;-91
2023/07/31 16:41:59;;;;;;;6.50;2.40;;;;;;;21.84;75.49;99671.70;223093;1267;141244;-92
2023/07/31 16:46:59;;;;;;;5.40;2.50;;;;;;;21.84;75.75;99677.41;223713;1266;138889;-90
2023/07/31 16:52:00;;;;;;;7.80;2.60;;;;;;;21.82;75.91;99672.67;223177;1267;140806;-89
2023/07/31 16:57:01;;;;;;;9.50;2.80;;;;;;;21.80;75.48;99666.46;223622;1267;138854;-94
2023/07/31 17:02:02;;;;;;;6.80;2.40;;;;;;;21.78;75.69;99661.08;223178;1267;140722;-92
2023/07/31 17:07:03;;;;;;;7.50;2.60;;;;;;;21.78;75.62;99655.52;223654;1267;139570;-91
2023/07/31 17:12:04;;;;;;;7.50;2.90;;;;;;;21.78;75.73;99658.70;223145;1267;140423;-90
2023/07/31 17:17:06;;;;;;;6.30;2.30;;;;;;;21.76;75.95;99667.75;223708;1267;139080;-90
2023/07/31 17:22:06;;;;;;;5.80;2.70;;;;;;;21.78;75.68;99667.52;223122;1266;141117;-92
2023/07/31 17:27:07;;;;;;;5.80;3.20;;;;;;;21.74;75.26;99668.81;223547;1268;138784;-92
2023/07/31 17:32:07;;;;;;;5.50;2.60;;;;;;;21.70;75.03;99674.03;223158;1266;140204;-93
2023/07/31 17:37:09;;;;;;;6.90;3.10;;;;;;;21.66;75.00;99676.42;223655;1270;138660;-92
2023/07/31 17:42:09;;;;;;;8.20;3.20;;;;;;;21.61;74.98;99671.39;223150;1266;140482;-90
2023/07/31 17:47:09;;;;;;;7.50;3.20;;;;;;;21.55;75.23;99664.93;223616;1267;139171;-92
2023/07/31 17:52:11;;;;;;;6.30;3.00;;;;;;;21.52;75.74;99663.76;223083;1267;140211;-90
2023/07/31 17:57:12;;;;;;;11.50;3.10;;;;;;;21.49;75.64;99662.42;223693;1270;139325;-90
2023/07/31 18:02:12;;;;;;;8.30;3.00;;;;;;;21.44;75.39;99672.97;223195;1268;141761;-92
2023/07/31 18:07:13;;;;;;;6.10;2.90;;;;;;;21.39;75.46;99666.98;223682;1268;138987;-93
2023/07/31 18:12:14;;;;;;;7.70;2.80;;;;;;;21.33;75.29;99666.17;223096;1267;140920;-92
2023/07/31 18:17:15;;;;;;;8.80;3.20;;;;;;;21.26;75.14;99664.48;223596;1267;139190;-93
2023/07/31 18:22:17;;;;;;;7.40;3.10;;;;;;;21.21;75.31;99657.13;222845;1267;141566;-92
2023/07/31 18:27:20;;;;;;;7.40;3.00;;;;;;;21.15;75.77;99642.39;223584;1268;138779;-94
2023/07/31 18:32:21;;;;;;;7.10;3.30;;;;;;;21.08;76.01;99642.83;223205;1268;141100;-94
2023/07/31 18:37:21;;;;;;;6.70;2.80;;;;;;;20.96;76.11;99634.55;223629;1267;138912;-90
2023/07/31 18:42:23;;;;;;;7.20;3.70;;;;;;;20.87;76.66;99623.46;223181;1267;140372;-92
2023/07/31 18:47:23;;;;;;;7.20;3.00;;;;;;;20.77;77.06;99621.34;223594;1270;138636;-92
2023/07/31 18:52:24;;;;;;;6.50;3.00;;;;;;;20.67;77.30;99626.39;223151;1267;140473;-91
2023/07/31 18:57:25;;;;;;;9.00;2.80;;;;;;;20.59;77.42;99621.45;223705;1267;139442;-92
2023/07/31 19:02:26;;;;;;;6.50;3.20;;;;;;;20.52;77.65;99613.91;223284;1267;140924;-93
2023/07/31 19:07:26;;;;;;;9.30;3.70;;;;;;;20.44;77.98;99618.69;223574;1266;139817;-92
2023/07/31 19:12:27;;;;;;;10.50;4.00;;;;;;;20.37;78.48;99616.19;223228;1266;140736;-96
2023/07/31 19:17:27;;;;;;;7.40;3.60;;;;;;;20.30;78.83;99607.81;223707;1267;141606;-92
2023/07/31 19:22:28;;;;;;;10.60;3.30;;;;;;;20.25;79.02;99597.80;223079;1268;141266;-94
2023/07/31 19:27:28;;;;;;;7.10;3.00;;;;;;;20.23;79.16;99597.99;223667;1267;139157;-90
2023/07/31 19:32:31;;;;;;;8.10;3.20;;;;;;;20.21;79.54;99590.75;223309;1268;140480;-92
2023/07/31 19:37:32;;;;;;;10.40;4.00;;;;;;;20.18;79.70;99590.11;223610;1267;138852;-91
2023/07/31 19:42:35;;;;;;;8.20;3.40;;;;;;;20.18;79.94;99585.84;223058;1267;140588;-89
2023/07/31 19:47:35;;;;;;;10.30;3.90;;;;;;;20.16;79.99;99578.24;223646;1267;138823;-89
2023/07/31 19:52:36;;;;;;;11.20;4.00;;;;;;;20.14;80.11;99569.93;223089;1267;142367;-90
2023/07/31 19:57:37;;;;;;;8.00;3.50;;;;;;;20.14;80.13;99568.26;223673;1267;138860;-92
2023/07/31 20:02:37;;;;;;;10.20;4.10;;;;;;;20.13;80.02;99565.02;223190;1268;140935;-91
2023/07/31 20:07:38;;;;;;;10.00;4.10;;;;;;;20.10;80.26;99555.17;223683;1268;139096;-92
2023/07/31 20:12:38;;;;;;;11.50;3.90;;;;;;;20.08;80.22;99554.14;223102;1268;141163;-90
2023/07/31 20:17:39;;;;;;;9.80;4.30;;;;;;;20.06;80.40;99556.36;223559;1267;139105;-91
2023/07/31 20:22:39;;;;;;;7.50;3.30;;;;;;;20.05;80.35;99555.38;222793;1271;141707;-91
2023/07/31 20:27:40;;;;;;;10.50;4.20;;;;;;;20.04;80.39;99556.44;223502;1270;139720;-90
2023/07/31 20:32:41;;;;;;;8.70;3.60;;;;;;;20.05;80.34;99551.20;223067;1270;141867;-92
2023/07/31 20:37:41;;;;;;;8.60;4.00;;;;;;;20.06;80.35;99548.31;223396;1268;139886;-91
2023/07/31 20:42:42;;;;;;;10.10;3.40;;;;;;;20.09;80.53;99542.31;222976;1268;140393;-92
2023/07/31 20:47:45;;;;;;;7.30;3.50;;;;;;;20.11;80.68;99528.73;223503;1268;139462;-90
2023/07/31 20:52:45;;;;;;;8.50;3.60;;;;;;;20.12;80.67;99525.63;222911;1267;140893;-91
2023/07/31 20:57:45;;;;;;;9.60;3.60;;;;;;;20.13;80.97;99516.19;223521;1271;139288;-89
2023/07/31 21:02:46;;;;;;;8.60;3.70;;;;;;;20.14;81.12;99512.71;223061;1268;141904;-91
2023/07/31 21:07:47;;;;;;;9.10;3.50;;;;;;;20.14;81.39;99517.80;223509;1268;138508;-91
2023/07/31 21:12:47;;;;;;;11.00;4.20;;;;;;;20.15;81.52;99516.73;222844;1271;140339;-92
2023/07/31 21:17:48;;;;;;;7.50;3.40;;;;;;;20.17;81.76;99510.83;223487;1271;138963;-95
2023/07/31 21:22:48;;;;;;;8.60;4.00;;;;;;;20.18;81.79;99509.66;223026;1271;141347;-93
2023/07/31 21:27:48;;;;;;;9.40;4.00;;;;;;;20.19;81.99;99508.91;223534;1267;138864;-92
2023/07/31 21:32:49;;;;;;;9.80;4.50;;;;;;;20.18;82.37;99508.95;223100;1267;140718;-91
2023/07/31 21:37:51;;;;;;;8.10;4.00;;;;;;;20.17;82.52;99508.97;223611;1267;138744;-95
2023/07/31 21:42:56;;;;;;;14.50;4.50;;;;;;;20.16;82.71;99513.98;222731;1267;361362;-92
2023/07/31 21:47:57;;;;;;;8.30;3.70;;;;;;;20.14;83.02;99508.72;223678;1266;139156;-91
2023/07/31 21:52:57;;;;;;;11.60;3.90;;;;;;;20.12;83.29;99503.68;223099;1269;140350;-92
2023/07/31 21:57:58;;;;;;;12.10;4.30;;;;;;;20.10;83.35;99493.16;223694;1267;139083;-94
2023/07/31 22:02:59;;;;;;;9.80;4.30;;;;;;;20.07;83.60;99491.28;223113;1266;141592;-91
2023/07/31 22:08:00;;;;;;;10.60;3.80;;;;;;;20.06;83.72;99486.14;223788;1267;95828;-92
2023/07/31 22:13:00;;;;;;;9.10;3.50;;;;;;;20.04;83.79;99477.05;223074;1267;141698;-90
2023/07/31 22:18:01;;;;;;;12.70;4.20;;;;;;;20.03;83.87;99466.08;223622;1267;138846;-92
2023/07/31 22:23:01;;;;;;;8.10;3.70;;;;;;;20.00;83.82;99459.21;223140;1266;141507;-90
2023/07/31 22:28:02;;;;;;;8.70;3.90;;;;;;;20.00;83.96;99454.27;223662;1271;138944;-90
2023/07/31 22:33:03;;;;;;;8.90;4.00;;;;;;;19.98;83.95;99446.90;223117;1270;140554;-90
2023/07/31 22:38:03;;;;;;;10.10;3.40;;;;;;;19.94;84.12;99445.86;223770;1270;95837;-89
2023/07/31 22:43:03;;;;;;;9.50;3.70;;;;;;;19.90;84.23;99444.10;223052;1271;141752;-90
2023/07/31 22:48:04;;;;;;;9.00;3.40;;;;;;;19.88;84.48;99441.88;223603;1267;139386;-90
2023/07/31 22:53:06;;;;;;;8.00;3.40;;;;;;;19.86;84.54;99433.20;223045;1269;140357;-90
2023/07/31 22:58:06;;;;;;;9.10;3.50;;;;;;;19.86;84.51;99431.98;223503;1270;138922;-89
2023/07/31 23:03:07;;;;;;;9.00;4.10;;;;;;;19.86;84.48;99424.73;222991;1267;141621;-89
2023/07/31 23:08:07;;;;;;;10.60;4.30;;;;;;;19.84;84.59;99422.74;223709;1267;96089;-90
2023/07/31 23:13:08;;;;;;;9.80;3.90;;;;;;;19.83;84.70;99420.98;223180;1267;141412;-91
2023/07/31 23:18:08;;;;;;;9.60;4.00;;;;;;;19.82;84.61;99420.45;223746;1267;141093;-91
2023/07/31 23:23:09;;;;;;;8.20;3.60;;;;;;;19.81;84.61;99420.73;223112;1267;141204;-90
2023/07/31 23:28:09;;;;;;;9.10;3.50;;;;;;;19.81;84.66;99416.90;223666;1267;138666;-91
2023/07/31 23:33:10;;;;;;;9.40;3.80;;;;;;;19.80;84.61;99416.93;223127;1267;141595;-91
2023/07/31 23:38:10;;;;;;;9.30;3.80;;;;;;;19.81;84.58;99411.88;223806;1267;96259;-90
2023/07/31 23:43:10;;;;;;;8.00;3.80;;;;;;;19.82;84.52;99406.66;223131;1267;141899;-87
2023/07/31 23:48:11;;;;;;;10.50;3.80;;;;;;;19.82;84.49;99402.33;223722;1267;138707;-87
2023/07/31 23:53:11;;;;;;;9.20;3.70;;;;;;;19.83;84.36;99392.64;223098;1267;141818;-88
2023/07/31 23:58:13;;;;;;;8.90;3.90;;;;;;;19.83;84.18;99397.27;223692;1267;138780;-88
